sensor_id;sensor_type;location;lat;lon;timestamp;P1;durP1;ratioP1;P2;durP2;ratioP2
1505;SDS011;744;51.436;7.356;2022-08-19T00:01:30;7.13;;;6.53;;
1505;SDS011;744;51.436;7.356;2022-08-19T00:04:05;7.10;;;6.50;;
1505;SDS011;744;51.436;7.356;2022-08-19T00:06:33;8.30;;;7.50;;
1505;SDS011;744;51.436;7.356;2022-08-19T00:09:02;8.20;;;6.90;;
1505;SDS011;744;51.436;7.356;2022-08-19T00:11:31;8.03;;;7.27;;
1505;SDS011;744;51.436;7.356;2022-08-19T00:14:00;7.00;;;6.33;;
1505;SDS011;744;51.436;7.356;2022-08-19T00:16:27;8.40;;;7.70;;
1505;SDS011;744;51.436;7.356;2022-08-19T00:18:54;8.10;;;7.40;;
1505;SDS011;744;51.436;7.356;2022-08-19T00:21:22;7.60;;;7.00;;
1505;SDS011;744;51.436;7.356;2022-08-19T00:23:50;8.40;;;7.70;;
1505;SDS011;744;51.436;7.356;2022-08-19T00:26:16;7.30;;;6.70;;
1505;SDS011;744;51.436;7.356;2022-08-19T00:28:43;7.03;;;6.43;;
1505;SDS011;744;51.436;7.356;2022-08-19T00:31:10;7.10;;;6.40;;
1505;SDS011;744;51.436;7.356;2022-08-19T00:33:37;7.77;;;6.70;;
1505;SDS011;744;51.436;7.356;2022-08-19T00:36:06;7.90;;;7.13;;
1505;SDS011;744;51.436;7.356;2022-08-19T00:38:35;7.90;;;7.00;;
1505;SDS011;744;51.436;7.356;2022-08-19T00:41:06;7.97;;;7.17;;
1505;SDS011;744;51.436;7.356;2022-08-19T00:43:33;7.77;;;7.03;;
1505;SDS011;744;51.436;7.356;2022-08-19T00:46:01;8.37;;;7.57;;
1505;SDS011;744;51.436;7.356;2022-08-19T00:48:31;8.20;;;7.40;;
1505;SDS011;744;51.436;7.356;2022-08-19T00:50:59;7.77;;;6.97;;
1505;SDS011;744;51.436;7.356;2022-08-19T00:53:29;7.33;;;6.63;;
1505;SDS011;744;51.436;7.356;2022-08-19T00:56:00;6.80;;;6.20;;
1505;SDS011;744;51.436;7.356;2022-08-19T00:58:29;11.47;;;7.20;;
1505;SDS011;744;51.436;7.356;2022-08-19T01:00:58;8.00;;;7.30;;
1505;SDS011;744;51.436;7.356;2022-08-19T01:03:27;8.33;;;7.57;;
1505;SDS011;744;51.436;7.356;2022-08-19T01:06:15;8.50;;;7.70;;
1505;SDS011;744;51.436;7.356;2022-08-19T01:08:45;8.03;;;7.33;;
1505;SDS011;744;51.436;7.356;2022-08-19T01:11:15;8.57;;;7.70;;
1505;SDS011;744;51.436;7.356;2022-08-19T01:13:43;8.40;;;7.70;;
1505;SDS011;744;51.436;7.356;2022-08-19T01:16:15;7.00;;;6.50;;
1505;SDS011;744;51.436;7.356;2022-08-19T01:18:43;9.00;;;8.20;;
1505;SDS011;744;51.436;7.356;2022-08-19T01:21:12;8.00;;;7.30;;
1505;SDS011;744;51.436;7.356;2022-08-19T01:23:55;7.90;;;7.10;;
1505;SDS011;744;51.436;7.356;2022-08-19T01:26:23;6.73;;;6.13;;
1505;SDS011;744;51.436;7.356;2022-08-19T01:28:52;9.93;;;7.10;;
1505;SDS011;744;51.436;7.356;2022-08-19T01:31:27;8.00;;;6.30;;
1505;SDS011;744;51.436;7.356;2022-08-19T01:33:58;8.53;;;7.73;;
1505;SDS011;744;51.436;7.356;2022-08-19T01:36:27;7.50;;;6.90;;
1505;SDS011;744;51.436;7.356;2022-08-19T01:38:56;9.77;;;8.87;;
1505;SDS011;744;51.436;7.356;2022-08-19T01:41:24;8.87;;;8.10;;
1505;SDS011;744;51.436;7.356;2022-08-19T01:43:51;9.50;;;8.37;;
1505;SDS011;744;51.436;7.356;2022-08-19T01:46:39;9.23;;;8.30;;
1505;SDS011;744;51.436;7.356;2022-08-19T01:49:06;8.90;;;7.87;;
1505;SDS011;744;51.436;7.356;2022-08-19T01:51:34;9.63;;;8.80;;
1505;SDS011;744;51.436;7.356;2022-08-19T01:54:05;8.80;;;8.00;;
1505;SDS011;744;51.436;7.356;2022-08-19T01:56:33;9.77;;;8.87;;
1505;SDS011;744;51.436;7.356;2022-08-19T01:59:02;9.40;;;8.27;;
1505;SDS011;744;51.436;7.356;2022-08-19T02:01:32;9.10;;;8.30;;
1505;SDS011;744;51.436;7.356;2022-08-19T02:04:01;10.17;;;9.33;;
1505;SDS011;744;51.436;7.356;2022-08-19T02:06:28;9.47;;;8.67;;
1505;SDS011;744;51.436;7.356;2022-08-19T02:08:55;10.23;;;9.00;;
1505;SDS011;744;51.436;7.356;2022-08-19T02:11:27;8.97;;;8.17;;
1505;SDS011;744;51.436;7.356;2022-08-19T02:13:57;9.90;;;8.90;;
1505;SDS011;744;51.436;7.356;2022-08-19T02:16:25;11.50;;;9.77;;
1505;SDS011;744;51.436;7.356;2022-08-19T02:18:52;10.70;;;9.80;;
1505;SDS011;744;51.436;7.356;2022-08-19T02:21:20;10.10;;;9.30;;
1505;SDS011;744;51.436;7.356;2022-08-19T02:23:48;12.20;;;9.17;;
1505;SDS011;744;51.436;7.356;2022-08-19T02:26:16;9.43;;;8.60;;
1505;SDS011;744;51.436;7.356;2022-08-19T02:28:43;8.60;;;7.73;;
1505;SDS011;744;51.436;7.356;2022-08-19T02:31:14;8.70;;;7.17;;
1505;SDS011;744;51.436;7.356;2022-08-19T02:33:44;8.93;;;8.13;;
1505;SDS011;744;51.436;7.356;2022-08-19T02:36:12;8.50;;;7.70;;
1505;SDS011;744;51.436;7.356;2022-08-19T02:38:41;8.23;;;7.43;;
1505;SDS011;744;51.436;7.356;2022-08-19T02:41:21;9.03;;;7.57;;
1505;SDS011;744;51.436;7.356;2022-08-19T02:43:53;11.03;;;8.30;;
1505;SDS011;744;51.436;7.356;2022-08-19T02:46:41;9.37;;;8.30;;
1505;SDS011;744;51.436;7.356;2022-08-19T02:49:08;10.00;;;9.00;;
1505;SDS011;744;51.436;7.356;2022-08-19T02:51:36;10.53;;;9.53;;
1505;SDS011;744;51.436;7.356;2022-08-19T02:54:05;9.67;;;8.67;;
1505;SDS011;744;51.436;7.356;2022-08-19T02:56:35;10.80;;;9.00;;
1505;SDS011;744;51.436;7.356;2022-08-19T02:59:04;10.70;;;9.60;;
1505;SDS011;744;51.436;7.356;2022-08-19T03:01:37;12.07;;;10.80;;
1505;SDS011;744;51.436;7.356;2022-08-19T03:04:07;12.83;;;11.70;;
1505;SDS011;744;51.436;7.356;2022-08-19T03:06:37;14.63;;;12.80;;
1505;SDS011;744;51.436;7.356;2022-08-19T03:09:06;12.87;;;11.67;;
1505;SDS011;744;51.436;7.356;2022-08-19T03:11:34;12.27;;;10.33;;
1505;SDS011;744;51.436;7.356;2022-08-19T03:14:01;10.30;;;9.30;;
1505;SDS011;744;51.436;7.356;2022-08-19T03:16:30;11.23;;;10.13;;
1505;SDS011;744;51.436;7.356;2022-08-19T03:19:00;10.10;;;9.20;;
1505;SDS011;744;51.436;7.356;2022-08-19T03:21:29;10.10;;;9.30;;
1505;SDS011;744;51.436;7.356;2022-08-19T03:23:57;13.20;;;11.80;;
1505;SDS011;744;51.436;7.356;2022-08-19T03:26:26;12.03;;;10.73;;
1505;SDS011;744;51.436;7.356;2022-08-19T03:28:53;12.87;;;11.30;;
1505;SDS011;744;51.436;7.356;2022-08-19T03:31:24;12.00;;;10.90;;
1505;SDS011;744;51.436;7.356;2022-08-19T03:34:33;11.43;;;10.33;;
1505;SDS011;744;51.436;7.356;2022-08-19T03:37:03;11.63;;;10.50;;
1505;SDS011;744;51.436;7.356;2022-08-19T03:39:32;12.77;;;11.57;;
1505;SDS011;744;51.436;7.356;2022-08-19T03:41:59;12.73;;;11.43;;
1505;SDS011;744;51.436;7.356;2022-08-19T03:44:48;12.20;;;11.00;;
1505;SDS011;744;51.436;7.356;2022-08-19T03:47:15;10.87;;;9.77;;
1505;SDS011;744;51.436;7.356;2022-08-19T03:49:43;10.60;;;9.60;;
1505;SDS011;744;51.436;7.356;2022-08-19T03:52:10;11.30;;;10.30;;
1505;SDS011;744;51.436;7.356;2022-08-19T03:54:37;12.73;;;11.43;;
1505;SDS011;744;51.436;7.356;2022-08-19T03:57:05;13.33;;;11.60;;
1505;SDS011;744;51.436;7.356;2022-08-19T03:59:34;11.67;;;10.57;;
1505;SDS011;744;51.436;7.356;2022-08-19T04:02:05;10.00;;;9.10;;
1505;SDS011;744;51.436;7.356;2022-08-19T04:04:36;12.33;;;8.70;;
1505;SDS011;744;51.436;7.356;2022-08-19T04:07:04;11.67;;;10.60;;
1505;SDS011;744;51.436;7.356;2022-08-19T04:09:31;11.37;;;10.37;;
1505;SDS011;744;51.436;7.356;2022-08-19T04:12:00;11.23;;;10.30;;
1505;SDS011;744;51.436;7.356;2022-08-19T04:14:28;11.30;;;10.30;;
1505;SDS011;744;51.436;7.356;2022-08-19T04:16:58;13.03;;;11.47;;
1505;SDS011;744;51.436;7.356;2022-08-19T04:19:26;12.80;;;11.20;;
1505;SDS011;744;51.436;7.356;2022-08-19T04:21:56;12.00;;;10.90;;
1505;SDS011;744;51.436;7.356;2022-08-19T04:24:23;12.67;;;11.57;;
1505;SDS011;744;51.436;7.356;2022-08-19T04:26:50;13.53;;;12.33;;
1505;SDS011;744;51.436;7.356;2022-08-19T04:29:19;14.03;;;11.53;;
1505;SDS011;744;51.436;7.356;2022-08-19T04:31:51;13.50;;;12.17;;
1505;SDS011;744;51.436;7.356;2022-08-19T04:34:20;14.10;;;12.77;;
1505;SDS011;744;51.436;7.356;2022-08-19T04:36:49;14.43;;;12.23;;
1505;SDS011;744;51.436;7.356;2022-08-19T04:39:19;12.70;;;11.50;;
1505;SDS011;744;51.436;7.356;2022-08-19T04:41:47;12.90;;;11.57;;
1505;SDS011;744;51.436;7.356;2022-08-19T04:44:33;12.70;;;11.40;;
1505;SDS011;744;51.436;7.356;2022-08-19T04:47:11;11.40;;;10.30;;
1505;SDS011;744;51.436;7.356;2022-08-19T04:49:38;12.33;;;11.23;;
1505;SDS011;744;51.436;7.356;2022-08-19T04:52:04;12.40;;;11.07;;
1505;SDS011;744;51.436;7.356;2022-08-19T04:54:31;12.63;;;11.43;;
1505;SDS011;744;51.436;7.356;2022-08-19T04:57:05;14.83;;;13.37;;
1505;SDS011;744;51.436;7.356;2022-08-19T04:59:35;13.97;;;12.67;;
1505;SDS011;744;51.436;7.356;2022-08-19T05:02:03;13.50;;;12.20;;
1505;SDS011;744;51.436;7.356;2022-08-19T05:04:30;14.57;;;13.17;;
1505;SDS011;744;51.436;7.356;2022-08-19T05:06:58;14.47;;;12.93;;
1505;SDS011;744;51.436;7.356;2022-08-19T05:09:27;13.37;;;12.17;;
1505;SDS011;744;51.436;7.356;2022-08-19T05:12:15;14.27;;;12.90;;
1505;SDS011;744;51.436;7.356;2022-08-19T05:14:42;15.23;;;13.17;;
1505;SDS011;744;51.436;7.356;2022-08-19T05:17:11;15.43;;;12.10;;
1505;SDS011;744;51.436;7.356;2022-08-19T05:19:53;15.37;;;12.73;;
1505;SDS011;744;51.436;7.356;2022-08-19T05:22:38;13.43;;;12.17;;
1505;SDS011;744;51.436;7.356;2022-08-19T05:25:07;15.47;;;13.97;;
1505;SDS011;744;51.436;7.356;2022-08-19T05:27:40;15.83;;;14.13;;
1505;SDS011;744;51.436;7.356;2022-08-19T05:30:08;20.97;;;14.33;;
1505;SDS011;744;51.436;7.356;2022-08-19T05:32:36;13.80;;;12.40;;
1505;SDS011;744;51.436;7.356;2022-08-19T05:35:04;15.60;;;14.10;;
1505;SDS011;744;51.436;7.356;2022-08-19T05:37:31;16.70;;;14.90;;
1505;SDS011;744;51.436;7.356;2022-08-19T05:39:58;15.90;;;14.30;;
1505;SDS011;744;51.436;7.356;2022-08-19T05:42:25;18.10;;;15.77;;
1505;SDS011;744;51.436;7.356;2022-08-19T05:44:52;17.60;;;15.80;;
1505;SDS011;744;51.436;7.356;2022-08-19T05:47:19;13.40;;;12.00;;
1505;SDS011;744;51.436;7.356;2022-08-19T05:49:47;12.80;;;11.60;;
1505;SDS011;744;51.436;7.356;2022-08-19T05:52:16;14.07;;;12.00;;
1505;SDS011;744;51.436;7.356;2022-08-19T05:54:44;11.93;;;10.77;;
1505;SDS011;744;51.436;7.356;2022-08-19T05:57:17;12.30;;;10.23;;
1505;SDS011;744;51.436;7.356;2022-08-19T05:59:44;12.83;;;11.63;;
1505;SDS011;744;51.436;7.356;2022-08-19T06:02:23;12.43;;;11.23;;
1505;SDS011;744;51.436;7.356;2022-08-19T06:04:49;10.30;;;9.40;;
1505;SDS011;744;51.436;7.356;2022-08-19T06:07:16;12.90;;;9.60;;
1505;SDS011;744;51.436;7.356;2022-08-19T06:09:43;15.00;;;13.43;;
1505;SDS011;744;51.436;7.356;2022-08-19T06:12:26;14.50;;;12.97;;
1505;SDS011;744;51.436;7.356;2022-08-19T06:14:54;13.63;;;10.80;;
1505;SDS011;744;51.436;7.356;2022-08-19T06:17:27;14.10;;;12.70;;
1505;SDS011;744;51.436;7.356;2022-08-19T06:19:57;12.23;;;11.03;;
1505;SDS011;744;51.436;7.356;2022-08-19T06:22:24;13.30;;;12.00;;
1505;SDS011;744;51.436;7.356;2022-08-19T06:24:52;12.33;;;11.27;;
1505;SDS011;744;51.436;7.356;2022-08-19T06:27:20;12.43;;;11.23;;
1505;SDS011;744;51.436;7.356;2022-08-19T06:29:47;11.73;;;10.63;;
1505;SDS011;744;51.436;7.356;2022-08-19T06:32:14;13.83;;;11.23;;
1505;SDS011;744;51.436;7.356;2022-08-19T06:34:42;14.73;;;13.33;;
1505;SDS011;744;51.436;7.356;2022-08-19T06:37:10;14.90;;;13.40;;
1505;SDS011;744;51.436;7.356;2022-08-19T06:39:38;17.30;;;14.83;;
1505;SDS011;744;51.436;7.356;2022-08-19T06:42:06;16.30;;;14.70;;
1505;SDS011;744;51.436;7.356;2022-08-19T06:44:36;14.30;;;12.77;;
1505;SDS011;744;51.436;7.356;2022-08-19T06:47:08;13.60;;;12.33;;
1505;SDS011;744;51.436;7.356;2022-08-19T06:49:48;13.77;;;12.47;;
1505;SDS011;744;51.436;7.356;2022-08-19T06:52:15;12.13;;;11.03;;
1505;SDS011;744;51.436;7.356;2022-08-19T06:54:42;14.00;;;11.83;;
1505;SDS011;744;51.436;7.356;2022-08-19T06:57:22;15.00;;;12.77;;
1505;SDS011;744;51.436;7.356;2022-08-19T06:59:49;14.40;;;13.03;;
1505;SDS011;744;51.436;7.356;2022-08-19T07:02:17;19.60;;;12.40;;
1505;SDS011;744;51.436;7.356;2022-08-19T07:04:48;14.10;;;12.80;;
1505;SDS011;744;51.436;7.356;2022-08-19T07:07:19;13.00;;;11.47;;
1505;SDS011;744;51.436;7.356;2022-08-19T07:09:47;12.00;;;10.80;;
1505;SDS011;744;51.436;7.356;2022-08-19T07:12:25;13.40;;;12.10;;
1505;SDS011;744;51.436;7.356;2022-08-19T07:15:01;12.97;;;11.67;;
1505;SDS011;744;51.436;7.356;2022-08-19T07:17:32;16.83;;;12.80;;
1505;SDS011;744;51.436;7.356;2022-08-19T07:20:01;13.63;;;12.23;;
1505;SDS011;744;51.436;7.356;2022-08-19T07:22:34;17.37;;;14.93;;
1505;SDS011;744;51.436;7.356;2022-08-19T07:25:01;25.83;;;14.50;;
1505;SDS011;744;51.436;7.356;2022-08-19T07:27:29;19.03;;;14.30;;
1505;SDS011;744;51.436;7.356;2022-08-19T07:29:58;18.40;;;16.43;;
1505;SDS011;744;51.436;7.356;2022-08-19T07:32:26;15.30;;;13.73;;
1505;SDS011;744;51.436;7.356;2022-08-19T07:34:53;17.00;;;15.30;;
1505;SDS011;744;51.436;7.356;2022-08-19T07:37:22;20.80;;;15.00;;
1505;SDS011;744;51.436;7.356;2022-08-19T07:39:58;18.00;;;14.90;;
1505;SDS011;744;51.436;7.356;2022-08-19T07:42:25;18.20;;;15.70;;
1505;SDS011;744;51.436;7.356;2022-08-19T07:44:52;15.30;;;13.70;;
1505;SDS011;744;51.436;7.356;2022-08-19T07:47:19;17.83;;;14.97;;
1505;SDS011;744;51.436;7.356;2022-08-19T07:50:07;17.17;;;15.37;;
1505;SDS011;744;51.436;7.356;2022-08-19T07:52:37;22.60;;;14.47;;
1505;SDS011;744;51.436;7.356;2022-08-19T07:55:07;17.60;;;14.70;;
1505;SDS011;744;51.436;7.356;2022-08-19T07:57:56;17.17;;;15.40;;
1505;SDS011;744;51.436;7.356;2022-08-19T08:00:23;15.93;;;14.30;;
1505;SDS011;744;51.436;7.356;2022-08-19T08:02:51;18.13;;;16.20;;
1505;SDS011;744;51.436;7.356;2022-08-19T08:05:21;15.90;;;14.30;;
1505;SDS011;744;51.436;7.356;2022-08-19T08:08:09;20.17;;;14.37;;
1505;SDS011;744;51.436;7.356;2022-08-19T08:10:57;17.13;;;13.80;;
1505;SDS011;744;51.436;7.356;2022-08-19T08:13:24;15.23;;;13.73;;
1505;SDS011;744;51.436;7.356;2022-08-19T08:15:52;15.50;;;13.90;;
1505;SDS011;744;51.436;7.356;2022-08-19T08:18:21;15.73;;;14.13;;
1505;SDS011;744;51.436;7.356;2022-08-19T08:20:53;14.23;;;12.73;;
1505;SDS011;744;51.436;7.356;2022-08-19T08:23:21;14.57;;;12.90;;
1505;SDS011;744;51.436;7.356;2022-08-19T08:25:48;14.70;;;13.10;;
1505;SDS011;744;51.436;7.356;2022-08-19T08:28:16;16.20;;;12.97;;
1505;SDS011;744;51.436;7.356;2022-08-19T08:30:44;15.30;;;12.27;;
1505;SDS011;744;51.436;7.356;2022-08-19T08:33:19;14.93;;;13.30;;
1505;SDS011;744;51.436;7.356;2022-08-19T08:35:59;16.37;;;14.87;;
1505;SDS011;744;51.436;7.356;2022-08-19T08:38:31;14.77;;;13.37;;
1505;SDS011;744;51.436;7.356;2022-08-19T08:43:56;16.27;;;14.57;;
1505;SDS011;744;51.436;7.356;2022-08-19T08:46:25;17.00;;;15.30;;
1505;SDS011;744;51.436;7.356;2022-08-19T08:49:00;21.40;;;16.30;;
1505;SDS011;744;51.436;7.356;2022-08-19T08:51:37;18.40;;;16.50;;
1505;SDS011;744;51.436;7.356;2022-08-19T08:54:14;18.70;;;16.77;;
1505;SDS011;744;51.436;7.356;2022-08-19T08:56:44;20.80;;;16.60;;
1505;SDS011;744;51.436;7.356;2022-08-19T09:01:52;17.87;;;14.90;;
1505;SDS011;744;51.436;7.356;2022-08-19T09:04:19;19.63;;;17.70;;
1505;SDS011;744;51.436;7.356;2022-08-19T09:06:51;21.50;;;19.20;;
1505;SDS011;744;51.436;7.356;2022-08-19T09:09:45;19.60;;;17.60;;
1505;SDS011;744;51.436;7.356;2022-08-19T09:15:02;22.20;;;18.73;;
1505;SDS011;744;51.436;7.356;2022-08-19T09:17:35;23.00;;;19.90;;
1505;SDS011;744;51.436;7.356;2022-08-19T09:22:51;16.50;;;14.73;;
1505;SDS011;744;51.436;7.356;2022-08-19T09:25:20;16.57;;;14.97;;
1505;SDS011;744;51.436;7.356;2022-08-19T09:27:54;17.73;;;15.40;;
1505;SDS011;744;51.436;7.356;2022-08-19T09:30:30;14.90;;;13.60;;
1505;SDS011;744;51.436;7.356;2022-08-19T09:32:58;16.93;;;15.43;;
1505;SDS011;744;51.436;7.356;2022-08-19T09:35:26;17.90;;;16.30;;
1505;SDS011;744;51.436;7.356;2022-08-19T09:37:55;19.77;;;17.77;;
1505;SDS011;744;51.436;7.356;2022-08-19T09:40:25;22.07;;;19.83;;
1505;SDS011;744;51.436;7.356;2022-08-19T09:42:56;27.00;;;24.37;;
1505;SDS011;744;51.436;7.356;2022-08-19T09:45:23;23.60;;;21.30;;
1505;SDS011;744;51.436;7.356;2022-08-19T09:47:51;26.83;;;24.23;;
1505;SDS011;744;51.436;7.356;2022-08-19T09:50:20;33.70;;;30.53;;
1505;SDS011;744;51.436;7.356;2022-08-19T09:52:48;29.10;;;26.10;;
1505;SDS011;744;51.436;7.356;2022-08-19T09:55:23;29.83;;;27.10;;
1505;SDS011;744;51.436;7.356;2022-08-19T09:57:58;32.40;;;29.23;;
1505;SDS011;744;51.436;7.356;2022-08-19T10:00:26;34.13;;;30.73;;
1505;SDS011;744;51.436;7.356;2022-08-19T10:02:53;27.77;;;25.10;;
1505;SDS011;744;51.436;7.356;2022-08-19T10:05:20;28.93;;;26.10;;
1505;SDS011;744;51.436;7.356;2022-08-19T10:08:18;27.73;;;25.07;;
1505;SDS011;744;51.436;7.356;2022-08-19T10:10:51;30.43;;;27.50;;
1505;SDS011;744;51.436;7.356;2022-08-19T10:13:20;29.00;;;25.60;;
1505;SDS011;744;51.436;7.356;2022-08-19T10:15:51;30.13;;;27.27;;
1505;SDS011;744;51.436;7.356;2022-08-19T10:18:21;32.23;;;26.07;;
1505;SDS011;744;51.436;7.356;2022-08-19T10:20:49;28.90;;;26.00;;
1505;SDS011;744;51.436;7.356;2022-08-19T10:23:18;31.07;;;28.10;;
1505;SDS011;744;51.436;7.356;2022-08-19T10:25:46;29.90;;;26.93;;
1505;SDS011;744;51.436;7.356;2022-08-19T10:28:14;29.47;;;26.23;;
1505;SDS011;744;51.436;7.356;2022-08-19T10:30:44;28.23;;;25.30;;
1505;SDS011;744;51.436;7.356;2022-08-19T10:33:12;27.23;;;23.80;;
1505;SDS011;744;51.436;7.356;2022-08-19T10:35:40;28.20;;;25.80;;
1505;SDS011;744;51.436;7.356;2022-08-19T10:38:21;26.60;;;24.17;;
1505;SDS011;744;51.436;7.356;2022-08-19T10:40:58;24.17;;;21.67;;
1505;SDS011;744;51.436;7.356;2022-08-19T10:43:33;24.47;;;22.17;;
1505;SDS011;744;51.436;7.356;2022-08-19T10:46:04;23.53;;;21.33;;
1505;SDS011;744;51.436;7.356;2022-08-19T10:48:42;20.40;;;18.13;;
1505;SDS011;744;51.436;7.356;2022-08-19T10:51:10;15.27;;;13.97;;
1505;SDS011;744;51.436;7.356;2022-08-19T10:53:57;17.03;;;15.53;;
1505;SDS011;744;51.436;7.356;2022-08-19T10:56:25;17.13;;;15.60;;
1505;SDS011;744;51.436;7.356;2022-08-19T10:59:11;16.07;;;14.67;;
1505;SDS011;744;51.436;7.356;2022-08-19T11:01:40;15.97;;;14.13;;
1505;SDS011;744;51.436;7.356;2022-08-19T11:04:09;16.47;;;14.80;;
1505;SDS011;744;51.436;7.356;2022-08-19T11:06:46;16.20;;;14.70;;
1505;SDS011;744;51.436;7.356;2022-08-19T11:09:19;16.90;;;14.13;;
1505;SDS011;744;51.436;7.356;2022-08-19T11:11:58;17.27;;;15.40;;
1505;SDS011;744;51.436;7.356;2022-08-19T11:14:29;15.27;;;13.67;;
1505;SDS011;744;51.436;7.356;2022-08-19T11:16:59;16.87;;;15.37;;
1505;SDS011;744;51.436;7.356;2022-08-19T11:19:26;14.50;;;12.97;;
1505;SDS011;744;51.436;7.356;2022-08-19T11:21:53;12.30;;;11.30;;
1505;SDS011;744;51.436;7.356;2022-08-19T11:24:25;14.20;;;13.00;;
1505;SDS011;744;51.436;7.356;2022-08-19T11:26:54;13.57;;;11.60;;
1505;SDS011;744;51.436;7.356;2022-08-19T11:29:27;20.10;;;18.23;;
1505;SDS011;744;51.436;7.356;2022-08-19T11:31:55;15.10;;;13.57;;
1505;SDS011;744;51.436;7.356;2022-08-19T11:34:23;13.03;;;11.83;;
1505;SDS011;744;51.436;7.356;2022-08-19T11:36:54;15.83;;;13.30;;
1505;SDS011;744;51.436;7.356;2022-08-19T11:39:25;14.97;;;13.63;;
1505;SDS011;744;51.436;7.356;2022-08-19T11:41:54;13.37;;;12.27;;
1505;SDS011;744;51.436;7.356;2022-08-19T11:44:21;13.83;;;12.53;;
1505;SDS011;744;51.436;7.356;2022-08-19T11:46:48;14.93;;;13.63;;
1505;SDS011;744;51.436;7.356;2022-08-19T11:49:18;16.43;;;15.13;;
1505;SDS011;744;51.436;7.356;2022-08-19T11:51:47;14.97;;;13.40;;
1505;SDS011;744;51.436;7.356;2022-08-19T11:54:16;16.00;;;14.30;;
1505;SDS011;744;51.436;7.356;2022-08-19T11:56:43;21.40;;;18.17;;
1505;SDS011;744;51.436;7.356;2022-08-19T11:59:12;20.57;;;18.53;;
1505;SDS011;744;51.436;7.356;2022-08-19T12:01:40;21.67;;;18.27;;
1505;SDS011;744;51.436;7.356;2022-08-19T12:04:08;18.93;;;17.23;;
1505;SDS011;744;51.436;7.356;2022-08-19T12:06:37;18.40;;;16.53;;
1505;SDS011;744;51.436;7.356;2022-08-19T12:09:05;17.47;;;15.50;;
1505;SDS011;744;51.436;7.356;2022-08-19T12:11:34;16.50;;;14.97;;
1505;SDS011;744;51.436;7.356;2022-08-19T12:14:03;16.20;;;14.70;;
1505;SDS011;744;51.436;7.356;2022-08-19T12:16:31;14.77;;;13.57;;
1505;SDS011;744;51.436;7.356;2022-08-19T12:18:59;15.10;;;13.70;;
1505;SDS011;744;51.436;7.356;2022-08-19T12:21:30;14.33;;;12.90;;
1505;SDS011;744;51.436;7.356;2022-08-19T12:23:59;14.63;;;12.40;;
1505;SDS011;744;51.436;7.356;2022-08-19T12:26:27;14.20;;;12.87;;
1505;SDS011;744;51.436;7.356;2022-08-19T12:28:55;12.87;;;11.70;;
1505;SDS011;744;51.436;7.356;2022-08-19T12:31:22;13.73;;;12.00;;
1505;SDS011;744;51.436;7.356;2022-08-19T12:33:48;12.00;;;11.00;;
1505;SDS011;744;51.436;7.356;2022-08-19T12:36:16;13.73;;;12.30;;
1505;SDS011;744;51.436;7.356;2022-08-19T12:38:44;14.43;;;13.20;;
1505;SDS011;744;51.436;7.356;2022-08-19T12:41:12;13.23;;;12.23;;
1505;SDS011;744;51.436;7.356;2022-08-19T12:43:41;13.47;;;12.27;;
1505;SDS011;744;51.436;7.356;2022-08-19T12:46:09;15.40;;;11.90;;
1505;SDS011;744;51.436;7.356;2022-08-19T12:48:36;14.53;;;11.53;;
1505;SDS011;744;51.436;7.356;2022-08-19T12:51:07;15.80;;;10.57;;
1505;SDS011;744;51.436;7.356;2022-08-19T12:53:37;13.13;;;11.83;;
1505;SDS011;744;51.436;7.356;2022-08-19T12:56:05;11.97;;;10.67;;
1505;SDS011;744;51.436;7.356;2022-08-19T12:58:38;12.03;;;11.03;;
1505;SDS011;744;51.436;7.356;2022-08-19T13:01:06;11.30;;;10.30;;
1505;SDS011;744;51.436;7.356;2022-08-19T13:03:34;9.97;;;9.07;;
1505;SDS011;744;51.436;7.356;2022-08-19T13:06:06;9.03;;;8.33;;
1505;SDS011;744;51.436;7.356;2022-08-19T13:08:33;8.47;;;7.60;;
1505;SDS011;744;51.436;7.356;2022-08-19T13:13:41;8.70;;;8.00;;
1505;SDS011;744;51.436;7.356;2022-08-19T13:16:10;8.37;;;7.67;;
1505;SDS011;744;51.436;7.356;2022-08-19T13:18:38;9.47;;;8.03;;
1505;SDS011;744;51.436;7.356;2022-08-19T13:21:07;8.03;;;7.43;;
1505;SDS011;744;51.436;7.356;2022-08-19T13:23:37;8.27;;;7.57;;
1505;SDS011;744;51.436;7.356;2022-08-19T13:26:05;9.53;;;8.60;;
1505;SDS011;744;51.436;7.356;2022-08-19T13:28:34;10.30;;;8.40;;
1505;SDS011;744;51.436;7.356;2022-08-19T13:31:21;7.63;;;6.83;;
1505;SDS011;744;51.436;7.356;2022-08-19T13:34:08;6.30;;;5.77;;
1505;SDS011;744;51.436;7.356;2022-08-19T13:36:36;6.77;;;6.27;;
1505;SDS011;744;51.436;7.356;2022-08-19T13:39:04;6.20;;;5.60;;
1505;SDS011;744;51.436;7.356;2022-08-19T13:41:31;6.30;;;5.80;;
1505;SDS011;744;51.436;7.356;2022-08-19T13:44:00;13.60;;;6.47;;
1505;SDS011;744;51.436;7.356;2022-08-19T13:46:27;7.70;;;7.00;;
1505;SDS011;744;51.436;7.356;2022-08-19T13:48:55;7.17;;;6.47;;
1505;SDS011;744;51.436;7.356;2022-08-19T13:51:22;6.60;;;6.17;;
1505;SDS011;744;51.436;7.356;2022-08-19T13:53:49;6.60;;;6.03;;
1505;SDS011;744;51.436;7.356;2022-08-19T13:56:18;6.13;;;5.63;;
1505;SDS011;744;51.436;7.356;2022-08-19T13:58:51;7.53;;;6.73;;
1505;SDS011;744;51.436;7.356;2022-08-19T14:01:20;7.60;;;6.53;;
1505;SDS011;744;51.436;7.356;2022-08-19T14:03:50;10.60;;;7.77;;
1505;SDS011;744;51.436;7.356;2022-08-19T14:06:17;23.97;;;7.50;;
1505;SDS011;744;51.436;7.356;2022-08-19T14:08:44;9.90;;;6.43;;
1505;SDS011;744;51.436;7.356;2022-08-19T14:11:13;6.33;;;5.83;;
1505;SDS011;744;51.436;7.356;2022-08-19T14:13:40;6.23;;;5.60;;
1505;SDS011;744;51.436;7.356;2022-08-19T14:16:08;5.83;;;5.37;;
1505;SDS011;744;51.436;7.356;2022-08-19T14:18:35;6.53;;;5.80;;
1505;SDS011;744;51.436;7.356;2022-08-19T14:21:03;7.53;;;5.73;;
1505;SDS011;744;51.436;7.356;2022-08-19T14:23:31;6.13;;;5.73;;
1505;SDS011;744;51.436;7.356;2022-08-19T14:26:09;6.73;;;5.60;;
1505;SDS011;744;51.436;7.356;2022-08-19T14:28:39;8.37;;;6.10;;
1505;SDS011;744;51.436;7.356;2022-08-19T14:31:09;8.50;;;5.80;;
1505;SDS011;744;51.436;7.356;2022-08-19T14:33:36;9.27;;;5.53;;
1505;SDS011;744;51.436;7.356;2022-08-19T14:36:04;5.70;;;5.23;;
1505;SDS011;744;51.436;7.356;2022-08-19T14:38:31;4.90;;;4.50;;
1505;SDS011;744;51.436;7.356;2022-08-19T14:41:05;5.60;;;5.20;;
1505;SDS011;744;51.436;7.356;2022-08-19T14:43:43;8.20;;;5.50;;
1505;SDS011;744;51.436;7.356;2022-08-19T14:46:14;7.97;;;5.90;;
1505;SDS011;744;51.436;7.356;2022-08-19T14:48:42;5.90;;;5.40;;
1505;SDS011;744;51.436;7.356;2022-08-19T14:51:10;8.50;;;6.50;;
1505;SDS011;744;51.436;7.356;2022-08-19T14:53:40;6.43;;;5.70;;
1505;SDS011;744;51.436;7.356;2022-08-19T14:56:08;5.47;;;4.97;;
1505;SDS011;744;51.436;7.356;2022-08-19T14:58:43;4.90;;;4.50;;
1505;SDS011;744;51.436;7.356;2022-08-19T15:01:11;6.37;;;4.80;;
1505;SDS011;744;51.436;7.356;2022-08-19T15:03:38;6.47;;;4.97;;
1505;SDS011;744;51.436;7.356;2022-08-19T15:06:07;7.20;;;5.43;;
1505;SDS011;744;51.436;7.356;2022-08-19T15:08:39;5.53;;;5.03;;
1505;SDS011;744;51.436;7.356;2022-08-19T15:11:07;6.17;;;5.63;;
1505;SDS011;744;51.436;7.356;2022-08-19T15:13:35;5.40;;;4.90;;
1505;SDS011;744;51.436;7.356;2022-08-19T15:16:03;7.43;;;5.40;;
1505;SDS011;744;51.436;7.356;2022-08-19T15:18:30;6.37;;;5.77;;
1505;SDS011;744;51.436;7.356;2022-08-19T15:20:58;5.10;;;4.67;;
1505;SDS011;744;51.436;7.356;2022-08-19T15:23:25;6.50;;;5.30;;
1505;SDS011;744;51.436;7.356;2022-08-19T15:25:52;6.80;;;5.43;;
1505;SDS011;744;51.436;7.356;2022-08-19T15:28:22;5.80;;;5.30;;
1505;SDS011;744;51.436;7.356;2022-08-19T15:30:50;7.10;;;6.00;;
1505;SDS011;744;51.436;7.356;2022-08-19T15:33:18;6.10;;;5.50;;
1505;SDS011;744;51.436;7.356;2022-08-19T15:35:46;6.30;;;4.93;;
1505;SDS011;744;51.436;7.356;2022-08-19T15:38:17;6.90;;;6.20;;
1505;SDS011;744;51.436;7.356;2022-08-19T15:40:49;6.43;;;4.77;;
1505;SDS011;744;51.436;7.356;2022-08-19T15:43:17;7.03;;;5.60;;
1505;SDS011;744;51.436;7.356;2022-08-19T15:45:47;6.87;;;6.13;;